Time;durP1;ratioP1;P1;durP2;ratioP2;P2;SDS_P1;SDS_P2;PMS_P1;PMS_P2;Temp;Humidity;BMP_temperature;BMP_pressure;BME280_temperature;BME280_humidity;BME280_pressure;Samples;Min_cycle;Max_cycle;Signal;HPM_P1;HPM_P2
2021/05/17 00:00:15;;;;;;;7.57;2.10;;;11.90;99.90;;;;;;5009933;28;20030;-60
2021/05/17 00:02:42;;;;;;;14.45;2.95;;;11.90;99.90;;;;;;5011013;28;20065;-59
2021/05/17 00:05:10;;;;;;;8.20;2.33;;;11.90;99.90;;;;;;5010683;28;20053;-60
2021/05/17 00:07:36;;;;;;;7.28;2.30;;;11.90;99.90;;;;;;5009858;28;20022;-59
2021/05/17 00:10:05;;;;;;;8.88;2.20;;;11.90;99.90;;;;;;5010146;28;20619;-58
2021/05/17 00:12:32;;;;;;;8.38;2.22;;;11.90;99.90;;;;;;5011707;28;20042;-59
2021/05/17 00:14:58;;;;;;;6.65;2.47;;;11.90;99.90;;;;;;5023010;28;20037;-59
2021/05/17 00:17:24;;;;;;;6.47;2.10;;;11.80;99.90;;;;;;5011901;28;20517;-59
2021/05/17 00:19:50;;;;;;;6.82;2.35;;;11.70;99.90;;;;;;5009856;28;20050;-60
2021/05/17 00:22:16;;;;;;;6.32;2.13;;;11.70;99.90;;;;;;5009848;28;20034;-58
2021/05/17 00:24:42;;;;;;;6.57;2.15;;;11.70;99.90;;;;;;5010147;28;20399;-60
2021/05/17 00:27:08;;;;;;;5.95;2.50;;;11.60;99.90;;;;;;5009295;28;20041;-60
2021/05/17 00:29:34;;;;;;;8.48;2.30;;;11.60;99.90;;;;;;5009659;28;20037;-59
2021/05/17 00:32:00;;;;;;;11.77;2.88;;;11.60;99.90;;;;;;5022709;28;20388;-60
2021/05/17 00:34:26;;;;;;;6.05;2.00;;;11.60;99.90;;;;;;5009622;28;20164;-60
2021/05/17 00:36:52;;;;;;;6.93;2.20;;;11.60;99.90;;;;;;5010787;28;20702;-59
2021/05/17 00:39:18;;;;;;;6.50;2.00;;;11.60;99.90;;;;;;5009814;28;20034;-59
2021/05/17 00:41:44;;;;;;;8.00;1.80;;;11.60;99.90;;;;;;5010048;28;20080;-59
2021/05/17 00:44:10;;;;;;;6.68;2.40;;;11.50;99.90;;;;;;5009406;28;20038;-59
2021/05/17 00:46:36;;;;;;;6.20;2.33;;;11.50;99.90;;;;;;5010443;28;20506;-60
2021/05/17 00:49:03;;;;;;;5.88;2.08;;;11.50;99.90;;;;;;5009533;28;20042;-60
2021/05/17 00:51:31;;;;;;;7.53;2.08;;;11.50;99.90;;;;;;5010239;28;20480;-58
2021/05/17 00:53:58;;;;;;;10.60;3.38;;;11.50;99.90;;;;;;5009647;28;20056;-58
2021/05/17 00:56:24;;;;;;;9.38;3.03;;;11.50;99.90;;;;;;5010295;28;20042;-59
2021/05/17 00:58:50;;;;;;;8.65;2.60;;;11.40;99.90;;;;;;5009258;28;20041;-58
2021/05/17 01:01:17;;;;;;;8.93;3.15;;;11.40;99.90;;;;;;5009882;28;20038;-60
2021/05/17 01:03:44;;;;;;;7.63;2.85;;;11.50;99.90;;;;;;5009849;28;20050;-59
2021/05/17 01:06:10;;;;;;;9.45;3.10;;;11.40;99.90;;;;;;5009997;28;20026;-60
2021/05/17 01:08:45;;;;;;;11.90;3.47;;;11.50;99.90;;;;;;5010291;28;20116;-58
2021/05/17 01:11:11;;;;;;;11.05;3.75;;;11.50;99.90;;;;;;5015436;28;20040;-60
2021/05/17 01:13:40;;;;;;;11.82;3.85;;;11.50;99.90;;;;;;5014416;28;20487;-59
2021/05/17 01:16:07;;;;;;;14.55;4.00;;;11.50;99.90;;;;;;5012472;28;20038;-58
2021/05/17 01:18:33;;;;;;;15.55;4.00;;;11.50;99.90;;;;;;5014231;28;20845;-59
2021/05/17 01:20:59;;;;;;;13.45;4.22;;;11.50;99.90;;;;;;5012384;28;20057;-59
2021/05/17 01:25:56;;;;;;;14.82;3.90;;;11.50;99.90;;;;;;5012080;28;20046;-59
2021/05/17 01:28:25;;;;;;;13.80;3.95;;;11.50;99.90;;;;;;5013842;28;20048;-59
2021/05/17 01:30:53;;;;;;;15.07;4.18;;;11.50;99.90;;;;;;5012848;28;20050;-59
2021/05/17 01:33:19;;;;;;;13.00;4.38;;;11.40;99.90;;;;;;5013320;28;20144;-59
2021/05/17 01:35:49;;;;;;;13.60;4.18;;;11.40;99.90;;;;;;5014618;28;20109;-58
2021/05/17 01:38:19;;;;;;;13.18;3.97;;;11.30;99.90;;;;;;4995929;28;20389;-61
2021/05/17 01:40:47;;;;;;;13.02;4.45;;;11.30;99.90;;;;;;5012166;28;20030;-57
2021/05/17 01:43:16;;;;;;;10.73;3.70;;;11.30;99.90;;;;;;5013087;28;20053;-60
2021/05/17 01:45:42;;;;;;;14.10;4.28;;;11.30;99.90;;;;;;5012461;28;20026;-59
2021/05/17 01:48:09;;;;;;;9.57;3.50;;;11.20;99.90;;;;;;5004315;28;20053;-60
2021/05/17 01:50:37;;;;;;;10.88;3.58;;;11.10;99.90;;;;;;5011700;28;20046;-59
2021/05/17 01:53:04;;;;;;;11.13;3.90;;;11.10;99.90;;;;;;4994874;28;20053;-56
2021/05/17 01:55:30;;;;;;;8.35;3.70;;;11.00;99.90;;;;;;5011377;28;20092;-59
2021/05/17 01:58:09;;;;;;;9.52;3.63;;;11.00;99.90;;;;;;5012536;28;20484;-58
2021/05/17 02:00:35;;;;;;;10.02;4.13;;;11.00;99.90;;;;;;5011462;28;20038;-60
2021/05/17 02:03:01;;;;;;;7.38;3.80;;;10.90;99.90;;;;;;5012981;28;20392;-59
2021/05/17 02:05:29;;;;;;;6.13;3.22;;;10.90;99.90;;;;;;5012275;28;20045;-59
2021/05/17 02:07:55;;;;;;;11.13;4.13;;;10.90;99.90;;;;;;5013265;28;20042;-60
2021/05/17 02:10:22;;;;;;;6.40;3.55;;;10.80;99.90;;;;;;5011927;28;20093;-59
2021/05/17 02:12:48;;;;;;;6.53;3.17;;;10.70;99.90;;;;;;5012515;28;20061;-58
2021/05/17 02:15:17;;;;;;;6.50;3.17;;;10.70;99.90;;;;;;5011473;28;20518;-58
2021/05/17 02:17:45;;;;;;;8.82;3.17;;;10.60;99.90;;;;;;5012560;28;20057;-58
2021/05/17 02:20:16;;;;;;;8.68;3.05;;;10.60;99.90;;;;;;5011654;28;20038;-59
2021/05/17 02:22:46;;;;;;;6.95;2.95;;;10.60;99.90;;;;;;5011110;28;20449;-59
2021/05/17 02:25:13;;;;;;;9.73;3.50;;;10.60;99.90;;;;;;5011437;28;20538;-61
2021/05/17 02:27:45;;;;;;;9.93;3.50;;;10.50;99.90;;;;;;5010634;28;20072;-58
2021/05/17 02:30:12;;;;;;;11.65;3.25;;;10.50;99.90;;;;;;5011773;28;20038;-58
2021/05/17 02:32:38;;;;;;;7.75;3.47;;;10.50;99.90;;;;;;5011091;28;20030;-56
2021/05/17 02:35:06;;;;;;;6.63;3.42;;;10.70;99.90;;;;;;5011250;28;20455;-59
2021/05/17 02:37:33;;;;;;;5.22;3.10;;;10.70;99.90;;;;;;5012199;28;20132;-59
2021/05/17 02:40:00;;;;;;;7.53;3.38;;;10.60;99.90;;;;;;4993905;28;20474;-59
2021/05/17 02:42:28;;;;;;;8.68;3.20;;;10.60;99.90;;;;;;5012304;28;20096;-60
2021/05/17 02:44:56;;;;;;;7.22;3.80;;;10.60;99.90;;;;;;5010835;28;20053;-59
2021/05/17 02:47:23;;;;;;;7.30;3.50;;;10.60;99.90;;;;;;5011729;28;20042;-60
2021/05/17 02:49:51;;;;;;;5.60;3.13;;;10.60;99.90;;;;;;5011212;28;20120;-60
2021/05/17 02:52:17;;;;;;;6.07;3.55;;;10.60;99.90;;;;;;5011555;28;20045;-61
2021/05/17 02:54:53;;;;;;;10.95;4.35;;;10.60;99.90;;;;;;5010994;28;20038;-59
2021/05/17 02:57:25;;;;;;;8.13;4.63;;;10.70;99.90;;;;;;5011783;28;20495;-59
2021/05/17 03:00:09;;;;;;;8.93;4.93;;;10.70;99.90;;;;;;5010759;28;20050;-59
2021/05/17 03:02:44;;;;;;;13.80;5.78;;;10.60;99.90;;;;;;5010559;28;20666;-59
2021/05/17 03:05:12;;;;;;;13.05;6.53;;;10.60;99.90;;;;;;5011018;28;20052;-59
2021/05/17 03:07:43;;;;;;;17.15;7.88;;;10.60;99.90;;;;;;4994096;28;20385;-59
2021/05/17 03:10:10;;;;;;;21.05;9.55;;;10.70;99.90;;;;;;5010833;28;20041;-61
2021/05/17 03:12:38;;;;;;;21.63;9.88;;;10.60;99.90;;;;;;5011438;28;20130;-59
2021/05/17 03:15:05;;;;;;;21.38;10.77;;;10.60;99.90;;;;;;5011073;28;20387;-59
2021/05/17 03:17:31;;;;;;;24.25;10.55;;;10.60;99.90;;;;;;5011272;28;20038;-58
2021/05/17 03:19:57;;;;;;;21.80;11.38;;;10.70;99.90;;;;;;5010700;28;20073;-58
2021/05/17 03:22:24;;;;;;;24.20;11.23;;;10.70;99.90;;;;;;5011542;28;20076;-59
2021/05/17 03:24:52;;;;;;;24.90;11.93;;;10.70;99.90;;;;;;5009294;28;20096;-59
2021/05/17 03:27:28;;;;;;;22.60;11.98;;;10.70;99.90;;;;;;5011164;28;20034;-59
2021/05/17 03:29:55;;;;;;;26.15;11.77;;;10.70;99.90;;;;;;5010554;28;20050;-59
2021/05/17 03:32:23;;;;;;;29.90;12.23;;;10.70;99.90;;;;;;5011719;28;20048;-58
2021/05/17 03:34:49;;;;;;;35.22;13.18;;;10.70;99.90;;;;;;5009816;28;20038;-59
2021/05/17 03:37:14;;;;;;;33.38;15.63;;;10.60;99.90;;;;;;5011179;28;20042;-57
2021/05/17 03:39:46;;;;;;;34.65;16.13;;;10.60;99.90;;;;;;5010133;28;20045;-59
2021/05/17 03:42:12;;;;;;;39.60;17.17;;;10.60;99.90;;;;;;5010956;28;20506;-59
2021/05/17 03:44:37;;;;;;;36.72;17.90;;;10.50;99.90;;;;;;5010396;28;20073;-60
2021/05/17 03:47:03;;;;;;;40.92;17.55;;;10.40;99.90;;;;;;5010440;28;20033;-59
2021/05/17 03:49:29;;;;;;;35.17;17.42;;;10.30;99.90;;;;;;4993711;28;20034;-59
2021/05/17 03:51:55;;;;;;;33.40;17.40;;;10.30;99.90;;;;;;5019757;28;20060;-60
2021/05/17 03:54:20;;;;;;;33.75;16.60;;;10.30;99.90;;;;;;5010543;28;20034;-58
2021/05/17 03:56:46;;;;;;;39.33;17.27;;;10.30;99.90;;;;;;5010004;28;20115;-59
2021/05/17 03:59:15;;;;;;;33.60;16.02;;;10.30;99.90;;;;;;5010617;28;20713;-58
2021/05/17 04:01:41;;;;;;;37.15;15.57;;;10.30;99.90;;;;;;5009251;28;20125;-59
2021/05/17 04:04:08;;;;;;;48.08;17.00;;;10.20;99.90;;;;;;5010839;28;20808;-58
2021/05/17 04:14:39;;;;;;;36.95;16.20;;;10.20;99.90;;;;;;5005266;28;20056;-58
2021/05/17 04:17:05;;;;;;;34.65;15.32;;;10.20;99.90;;;;;;5020517;28;20479;-58
2021/05/17 04:19:31;;;;;;;27.55;14.45;;;10.20;99.90;;;;;;5012008;28;20547;-59
2021/05/17 04:21:56;;;;;;;35.63;14.07;;;10.10;99.90;;;;;;5009824;28;20053;-59
2021/05/17 04:24:22;;;;;;;39.00;15.13;;;10.10;99.90;;;;;;5010206;28;20033;-58
2021/05/17 04:26:48;;;;;;;36.30;14.80;;;10.10;99.90;;;;;;5009857;28;20069;-58
2021/05/17 04:29:13;;;;;;;41.38;15.50;;;10.00;99.90;;;;;;5010519;28;20104;-59
2021/05/17 04:31:39;;;;;;;39.78;15.15;;;10.00;99.90;;;;;;5007768;28;20064;-59
2021/05/17 04:34:05;;;;;;;41.88;15.65;;;10.00;99.90;;;;;;5010494;28;20543;-57
2021/05/17 04:36:31;;;;;;;29.30;13.77;;;10.00;99.90;;;;;;5009696;28;20030;-62
2021/05/17 04:38:59;;;;;;;39.03;14.18;;;9.90;99.90;;;;;;5018073;28;20125;-59
2021/05/17 04:41:25;;;;;;;32.55;13.90;;;10.00;99.90;;;;;;5009736;28;20057;-59
2021/05/17 04:43:52;;;;;;;33.85;13.23;;;10.00;99.90;;;;;;5011401;28;20116;-59
2021/05/17 04:46:18;;;;;;;37.90;13.93;;;10.00;99.90;;;;;;5010170;28;20064;-59
2021/05/17 04:48:49;;;;;;;29.58;12.85;;;10.00;99.90;;;;;;5014245;28;20038;-58
2021/05/17 04:51:20;;;;;;;26.65;12.30;;;9.90;99.90;;;;;;5014601;28;20072;-59
2021/05/17 04:53:46;;;;;;;34.30;12.55;;;10.00;99.90;;;;;;5014038;28;20089;-60
2021/05/17 04:56:12;;;;;;;29.48;13.13;;;9.90;99.90;;;;;;5013447;28;20144;-59
2021/05/17 04:58:38;;;;;;;27.20;12.50;;;9.90;99.90;;;;;;5013522;28;20428;-58
2021/05/17 05:01:04;;;;;;;34.38;12.73;;;9.90;99.90;;;;;;5012991;28;20133;-60
2021/05/17 05:03:30;;;;;;;26.27;13.07;;;9.90;99.90;;;;;;5013324;28;20153;-58
2021/05/17 05:05:59;;;;;;;29.75;12.90;;;10.00;99.90;;;;;;5022139;28;20061;-59
2021/05/17 05:08:25;;;;;;;27.20;12.40;;;10.00;99.90;;;;;;5009779;28;20038;-57
2021/05/17 05:10:51;;;;;;;38.25;13.95;;;10.00;99.90;;;;;;5013322;28;20403;-59
2021/05/17 05:13:17;;;;;;;34.00;14.27;;;10.00;99.90;;;;;;5013673;28;20041;-59
2021/05/17 05:15:42;;;;;;;33.15;14.07;;;10.00;99.90;;;;;;5012606;28;20193;-59
2021/05/17 05:18:08;;;;;;;28.05;12.65;;;10.00;99.90;;;;;;5012632;28;20049;-59
2021/05/17 05:20:34;;;;;;;33.40;13.98;;;10.00;99.90;;;;;;5012128;28;20048;-59
2021/05/17 05:23:01;;;;;;;30.58;13.13;;;10.00;99.90;;;;;;5013106;28;20072;-58
2021/05/17 05:25:36;;;;;;;29.35;13.60;;;10.00;99.90;;;;;;5012209;28;20145;-59
2021/05/17 05:28:03;;;;;;;32.67;13.63;;;10.00;99.90;;;;;;5014069;28;20049;-59
2021/05/17 05:30:54;;;;;;;34.13;12.98;;;10.00;99.90;;;;;;5013023;28;20061;-58
2021/05/17 05:33:20;;;;;;;26.67;12.18;;;10.10;99.90;;;;;;5012970;28;20114;-58
2021/05/17 05:35:46;;;;;;;30.48;13.32;;;10.10;99.90;;;;;;5012118;28;20057;-59
2021/05/17 05:38:12;;;;;;;35.53;13.07;;;10.10;99.90;;;;;;5013246;28;20511;-59
2021/05/17 05:40:39;;;;;;;25.25;11.60;;;10.10;99.90;;;;;;5012397;28;20502;-61
2021/05/17 05:43:05;;;;;;;38.00;12.85;;;10.10;99.90;;;;;;5013323;28;20038;-60
2021/05/17 05:45:33;;;;;;;28.00;12.77;;;10.10;99.90;;;;;;5012749;28;20033;-61
2021/05/17 05:47:58;;;;;;;32.10;12.68;;;10.20;99.90;;;;;;5011846;28;20065;-59
2021/05/17 05:50:24;;;;;;;31.98;12.13;;;10.20;99.90;;;;;;5012290;28;20070;-60
2021/05/17 05:52:50;;;;;;;28.08;11.95;;;10.20;99.90;;;;;;5011732;28;20030;-60
2021/05/17 05:55:17;;;;;;;29.95;11.52;;;10.20;99.90;;;;;;5012856;28;20038;-59
2021/05/17 05:57:44;;;;;;;36.75;15.25;;;10.20;99.90;;;;;;5012103;28;20503;-61
2021/05/17 06:00:15;;;;;;;37.42;12.15;;;10.10;99.90;;;;;;5012507;28;20113;-60
2021/05/17 06:02:42;;;;;;;31.70;11.80;;;10.20;99.90;;;;;;5006772;28;20037;-61
2021/05/17 06:05:08;;;;;;;33.75;12.77;;;10.20;99.90;;;;;;5012910;28;20045;-58
2021/05/17 06:07:34;;;;;;;31.50;12.75;;;10.30;99.90;;;;;;5011437;28;20113;-60
2021/05/17 06:10:00;;;;;;;34.55;13.75;;;10.20;99.90;;;;;;5012526;28;20118;-60
2021/05/17 06:12:26;;;;;;;41.85;14.30;;;10.20;99.90;;;;;;5012128;28;20076;-59
2021/05/17 06:15:04;;;;;;;37.28;13.52;;;10.20;99.90;;;;;;5012039;28;20096;-60
2021/05/17 06:17:30;;;;;;;37.10;13.63;;;10.20;99.90;;;;;;5011341;28;20046;-59
2021/05/17 06:19:56;;;;;;;35.65;13.43;;;10.20;99.90;;;;;;5012812;28;20064;-59
2021/05/17 06:22:25;;;;;;;34.63;13.80;;;10.20;99.90;;;;;;5011404;28;20459;-58
2021/05/17 06:24:53;;;;;;;34.40;13.23;;;10.20;99.90;;;;;;5012525;28;20030;-59
2021/05/17 06:27:19;;;;;;;33.88;12.73;;;10.10;99.90;;;;;;5010687;28;20091;-60
2021/05/17 06:29:49;;;;;;;32.85;12.63;;;10.20;99.90;;;;;;5012259;28;20034;-60
2021/05/17 06:32:16;;;;;;;31.30;11.77;;;10.20;99.90;;;;;;5011117;28;20637;-60
2021/05/17 06:34:42;;;;;;;38.63;12.27;;;10.20;99.90;;;;;;5011241;28;20172;-59
2021/05/17 06:37:08;;;;;;;36.13;12.57;;;10.30;99.90;;;;;;5010588;28;20033;-61
2021/05/17 06:39:34;;;;;;;36.47;12.65;;;10.30;99.90;;;;;;5011884;28;20491;-58
2021/05/17 06:42:00;;;;;;;33.28;12.40;;;10.30;99.90;;;;;;5013597;28;20065;-61
2021/05/17 06:44:26;;;;;;;39.20;12.70;;;10.30;99.90;;;;;;5006331;28;20030;-60
2021/05/17 06:46:52;;;;;;;34.63;12.38;;;10.40;99.90;;;;;;5005538;28;20046;-60
2021/05/17 06:49:18;;;;;;;41.50;12.85;;;10.40;99.90;;;;;;5006335;28;20076;-60
2021/05/17 06:51:44;;;;;;;34.28;11.00;;;10.40;99.90;;;;;;5005032;28;20042;-57
2021/05/17 06:54:13;;;;;;;32.45;10.48;;;10.30;99.90;;;;;;5007780;28;20041;-59
2021/05/17 06:56:43;;;;;;;34.03;13.70;;;10.40;99.90;;;;;;5008915;28;20045;-58
2021/05/17 06:59:14;;;;;;;39.72;10.20;;;10.50;99.90;;;;;;5010414;28;20042;-58
2021/05/17 07:01:40;;;;;;;35.33;10.07;;;10.50;99.90;;;;;;5010353;28;20042;-60
2021/05/17 07:04:09;;;;;;;33.10;9.77;;;10.50;99.90;;;;;;5009181;28;20048;-59
2021/05/17 07:06:38;;;;;;;24.23;9.55;;;10.50;99.90;;;;;;5010062;28;20034;-61
2021/05/17 07:11:56;;;;;;;47.83;14.07;;;10.60;99.90;;;;;;5010659;28;20048;-60
2021/05/17 07:14:21;;;;;;;42.67;13.10;;;10.70;99.90;;;;;;5010899;28;20042;-59
2021/05/17 07:16:47;;;;;;;38.55;12.95;;;10.70;99.90;;;;;;5010208;28;20041;-60
2021/05/17 07:19:13;;;;;;;32.17;12.63;;;10.60;99.90;;;;;;5010678;28;20687;-61
2021/05/17 07:24:23;;;;;;;46.30;13.13;;;10.70;99.90;;;;;;5007334;28;20468;-59
2021/05/17 07:26:50;;;;;;;56.63;14.00;;;10.70;99.90;;;;;;5009942;28;20547;-59
2021/05/17 07:29:18;;;;;;;37.15;12.93;;;10.70;99.90;;;;;;5010272;28;20033;-60
2021/05/17 07:31:43;;;;;;;47.08;14.43;;;10.80;99.90;;;;;;5010017;28;20044;-59
2021/05/17 07:34:09;;;;;;;49.03;15.38;;;10.80;99.90;;;;;;5010887;28;20029;-60
2021/05/17 07:36:35;;;;;;;52.03;14.27;;;10.90;99.90;;;;;;5009444;28;20728;-57
2021/05/17 07:39:01;;;;;;;39.55;14.05;;;10.80;99.90;;;;;;5010498;28;20046;-59
2021/05/17 07:41:27;;;;;;;38.28;14.60;;;10.80;99.90;;;;;;5009939;28;20087;-60
2021/05/17 07:43:53;;;;;;;52.83;15.07;;;10.80;99.90;;;;;;5009435;28;20042;-60
2021/05/17 07:46:19;;;;;;;44.08;15.65;;;10.80;99.90;;;;;;5009926;28;20385;-59
2021/05/17 07:51:51;;;;;;;40.50;15.38;;;10.90;99.90;;;;;;4948034;29;20051;-60
2021/05/17 07:54:19;;;;;;;50.22;18.13;;;10.90;99.90;;;;;;4952495;28;20642;-60
2021/05/17 07:56:45;;;;;;;57.08;23.80;;;11.00;99.90;;;;;;4979179;28;20160;-59
2021/05/17 07:59:11;;;;;;;60.90;25.42;;;11.10;99.90;;;;;;5006713;28;20133;-60
2021/05/17 08:01:37;;;;;;;57.90;28.08;;;11.10;99.90;;;;;;5006557;28;20041;-61
2021/05/17 08:04:03;;;;;;;68.32;26.52;;;11.10;99.90;;;;;;5010584;28;20037;-58
2021/05/17 08:06:28;;;;;;;51.08;26.55;;;11.30;99.90;;;;;;5010217;28;20081;-60
2021/05/17 08:08:54;;;;;;;61.65;26.45;;;11.30;99.90;;;;;;5009267;28;20056;-61
2021/05/17 08:11:21;;;;;;;49.58;26.88;;;11.30;99.90;;;;;;5006611;28;20045;-60
2021/05/17 08:13:47;;;;;;;55.70;28.30;;;11.20;99.90;;;;;;5008522;28;20049;-59
2021/05/17 08:16:15;;;;;;;74.22;30.05;;;11.30;99.90;;;;;;5007723;28;20036;-60
2021/05/17 08:18:42;;;;;;;51.90;28.20;;;11.30;99.90;;;;;;5006841;28;20128;-59
2021/05/17 08:21:08;;;;;;;62.15;29.60;;;11.20;99.90;;;;;;5010127;28;20145;-60
2021/05/17 08:23:35;;;;;;;54.65;26.77;;;11.20;99.90;;;;;;5014234;28;20140;-60
2021/05/17 08:26:02;;;;;;;62.28;27.27;;;11.20;99.90;;;;;;5011635;28;20487;-57
2021/05/17 08:28:27;;;;;;;62.03;26.17;;;11.10;99.90;;;;;;5012971;28;20034;-56
2021/05/17 08:30:57;;;;;;;62.13;25.70;;;11.30;99.90;;;;;;5011741;28;20041;-61
2021/05/17 08:33:24;;;;;;;50.92;24.83;;;11.30;99.90;;;;;;5013035;28;20037;-58
2021/05/17 08:35:50;;;;;;;42.20;22.63;;;11.40;99.90;;;;;;5013019;28;20076;-59
2021/05/17 08:38:16;;;;;;;61.83;26.63;;;11.40;99.90;;;;;;5013469;28;20499;-60
2021/05/17 08:40:44;;;;;;;54.85;22.85;;;11.50;99.90;;;;;;5011048;28;20166;-60
2021/05/17 08:43:09;;;;;;;59.13;19.90;;;11.60;99.90;;;;;;5011512;28;20038;-59
2021/05/17 08:45:36;;;;;;;50.35;19.52;;;11.60;99.90;;;;;;5010857;28;20049;-58
2021/05/17 08:48:02;;;;;;;37.83;17.70;;;11.70;99.90;;;;;;5011171;28;20087;-58
2021/05/17 08:50:29;;;;;;;37.83;18.00;;;11.70;99.90;;;;;;5013489;28;20068;-60
2021/05/17 08:52:56;;;;;;;71.07;21.95;;;11.70;99.90;;;;;;5013426;28;20034;-60
2021/05/17 08:55:22;;;;;;;41.95;21.40;;;11.70;99.90;;;;;;5015367;28;20045;-60
2021/05/17 08:57:49;;;;;;;44.40;23.45;;;11.70;99.90;;;;;;5013471;28;20057;-60
2021/05/17 09:00:20;;;;;;;38.88;22.27;;;11.80;99.90;;;;;;5013469;28;20099;-58
2021/05/17 09:02:46;;;;;;;58.50;23.65;;;11.80;99.90;;;;;;5006982;28;20030;-58
2021/05/17 09:05:24;;;;;;;36.47;21.45;;;12.00;99.90;;;;;;5012604;28;20135;-60
2021/05/17 09:07:50;;;;;;;60.33;20.10;;;12.10;99.90;;;;;;5011024;28;20069;-59
2021/05/17 09:10:32;;;;;;;34.65;18.58;;;12.10;99.90;;;;;;5007726;28;20042;-59
2021/05/17 09:13:10;;;;;;;35.78;19.08;;;12.20;99.90;;;;;;5011467;28;20034;-59
2021/05/17 09:15:54;;;;;;;44.58;17.77;;;12.20;99.90;;;;;;5012389;28;20041;-59
2021/05/17 09:18:30;;;;;;;26.25;15.50;;;12.30;99.90;;;;;;5003050;28;20053;-59
2021/05/17 09:20:58;;;;;;;51.92;16.58;;;12.40;99.90;;;;;;5012975;28;20080;-58
2021/05/17 09:23:30;;;;;;;33.33;15.57;;;12.40;99.90;;;;;;5010535;28;20099;-61
2021/05/17 09:26:03;;;;;;;25.30;14.88;;;12.50;99.90;;;;;;5013024;28;20041;-59
2021/05/17 09:28:31;;;;;;;37.03;16.67;;;12.60;99.90;;;;;;5009297;28;20034;-59
2021/05/17 09:31:07;;;;;;;34.50;16.23;;;12.70;99.90;;;;;;5010832;28;20030;-59
2021/05/17 09:33:57;;;;;;;24.27;15.98;;;12.80;99.90;;;;;;5009991;28;20042;-58
2021/05/17 09:36:39;;;;;;;33.22;15.85;;;12.90;99.90;;;;;;5012140;28;20046;-60
2021/05/17 09:39:18;;;;;;;44.80;16.23;;;12.90;99.90;;;;;;5012172;28;20042;-59
2021/05/17 09:41:55;;;;;;;48.08;17.75;;;12.90;99.90;;;;;;5007085;28;20044;-59
2021/05/17 09:44:29;;;;;;;45.58;17.65;;;12.90;99.90;;;;;;5012208;28;20040;-58
2021/05/17 09:47:00;;;;;;;54.95;17.33;;;13.10;99.90;;;;;;5007188;28;20042;-58
2021/05/17 09:49:42;;;;;;;35.05;15.93;;;13.10;99.90;;;;;;5011320;28;20053;-58
2021/05/17 09:52:20;;;;;;;37.45;16.25;;;13.10;99.90;;;;;;5011115;28;20110;-59
2021/05/17 09:55:09;;;;;;;46.45;17.23;;;13.20;99.90;;;;;;5010794;28;20069;-60
2021/05/17 09:57:36;;;;;;;22.83;12.00;;;13.30;99.90;;;;;;5009521;28;20130;-59
2021/05/17 10:00:25;;;;;;;38.53;13.68;;;13.20;99.90;;;;;;5011717;28;20041;-58
2021/05/17 10:02:53;;;;;;;25.25;11.98;;;13.00;99.90;;;;;;5011778;28;20041;-59
2021/05/17 10:05:31;;;;;;;45.83;12.68;;;13.10;99.90;;;;;;5011830;28;20052;-57
2021/05/17 10:08:03;;;;;;;44.75;12.75;;;13.20;99.90;;;;;;5012071;28;20074;-58
2021/05/17 10:10:29;;;;;;;22.45;10.88;;;13.40;99.90;;;;;;5012608;28;20051;-59
2021/05/17 10:12:57;;;;;;;21.70;10.85;;;13.40;99.90;;;;;;5010713;28;20037;-59
2021/05/17 10:15:25;;;;;;;21.48;11.18;;;13.40;99.90;;;;;;5008931;28;20391;-60
2021/05/17 10:17:52;;;;;;;31.30;11.70;;;13.50;99.90;;;;;;5011043;28;20104;-59
2021/05/17 10:20:22;;;;;;;33.67;11.77;;;13.60;99.90;;;;;;5012297;28;20479;-60
2021/05/17 10:22:50;;;;;;;31.27;11.18;;;13.80;99.90;;;;;;5011455;28;20166;-58
2021/05/17 10:25:28;;;;;;;24.33;9.43;;;13.90;99.90;;;;;;5010181;28;20142;-58
2021/05/17 10:27:59;;;;;;;35.22;11.52;;;13.80;99.90;;;;;;5012659;28;20049;-59
2021/05/17 10:30:31;;;;;;;29.63;10.07;;;14.00;99.90;;;;;;5015062;28;20133;-58
2021/05/17 10:32:59;;;;;;;21.58;9.40;;;14.10;99.90;;;;;;5010717;28;20124;-60
2021/05/17 10:35:35;;;;;;;15.57;9.60;;;14.30;99.90;;;;;;5011175;28;20061;-59
2021/05/17 10:38:29;;;;;;;25.98;9.27;;;14.40;99.90;;;;;;5011524;28;20049;-60
2021/05/17 10:41:47;;;;;;;27.50;9.07;;;14.30;99.90;;;;;;5010198;28;20543;-59
2021/05/17 10:46:51;;;;;;;28.65;10.18;;;14.10;99.90;;;;;;5011575;28;20124;-59
2021/05/17 10:49:34;;;;;;;34.65;12.35;;;14.30;99.90;;;;;;5007211;28;20375;-58
2021/05/17 10:52:10;;;;;;;42.75;13.38;;;14.20;99.90;;;;;;5011313;28;20125;-61
2021/05/17 10:54:36;;;;;;;18.52;10.45;;;14.30;99.90;;;;;;5010115;28;20153;-58
2021/05/17 10:57:05;;;;;;;30.27;10.32;;;14.40;99.90;;;;;;5011475;28;20038;-58
2021/05/17 11:02:34;;;;;;;31.13;10.60;;;14.80;99.90;;;;;;5006195;28;20200;-60
2021/05/17 11:05:20;;;;;;;18.52;10.20;;;14.80;99.90;;;;;;5010860;28;20506;-60
2021/05/17 11:08:16;;;;;;;21.23;10.13;;;14.80;99.90;;;;;;5010644;28;20068;-57
2021/05/17 11:10:47;;;;;;;15.85;8.73;;;15.00;99.90;;;;;;4995992;28;20065;-58
2021/05/17 11:13:18;;;;;;;19.20;10.18;;;14.90;99.90;;;;;;5010599;28;20037;-58
2021/05/17 11:15:56;;;;;;;26.60;9.75;;;15.10;99.90;;;;;;5008915;28;20068;-60
2021/05/17 11:18:26;;;;;;;19.25;8.48;;;15.40;99.90;;;;;;5006015;28;20100;-59
2021/05/17 11:20:58;;;;;;;17.63;9.00;;;15.40;99.90;;;;;;5009205;28;20384;-59
2021/05/17 11:23:26;;;;;;;25.83;8.27;;;15.40;99.90;;;;;;5008201;28;20046;-60
2021/05/17 11:28:48;;;;;;;11.45;7.28;;;15.90;99.90;;;;;;5007544;28;20045;-61
2021/05/17 11:34:01;;;;;;;19.70;8.00;;;15.80;99.90;;;;;;5010757;28;20034;-58
2021/05/17 11:36:39;;;;;;;17.83;8.23;;;15.90;99.90;;;;;;5008302;28;20057;-59
2021/05/17 11:39:08;;;;;;;23.25;7.80;;;15.80;99.90;;;;;;5007663;28;20467;-59
2021/05/17 11:41:36;;;;;;;14.45;7.82;;;16.10;99.90;;;;;;5009232;28;20038;-59
2021/05/17 11:44:02;;;;;;;19.75;8.90;;;16.10;99.90;;;;;;5009763;28;20040;-59
2021/05/17 11:46:50;;;;;;;18.52;9.73;;;16.10;99.90;;;;;;5009692;28;20038;-58
2021/05/17 11:49:18;;;;;;;21.52;8.73;;;16.20;99.90;;;;;;5001880;28;20038;-59
2021/05/17 11:51:59;;;;;;;16.88;9.10;;;16.20;99.90;;;;;;5008476;28;20508;-60
2021/05/17 11:54:28;;;;;;;12.27;8.30;;;16.30;99.90;;;;;;5009992;28;20516;-59
2021/05/17 11:56:58;;;;;;;18.23;9.23;;;16.40;99.90;;;;;;5010795;28;20076;-59
2021/05/17 11:59:28;;;;;;;15.95;9.75;;;16.70;99.90;;;;;;5007255;28;20042;-57
2021/05/17 12:02:11;;;;;;;19.63;9.55;;;16.70;99.90;;;;;;5010429;28;20396;-60
2021/05/17 12:04:43;;;;;;;16.48;9.57;;;16.60;99.90;;;;;;5009599;28;20038;-58
2021/05/17 12:07:18;;;;;;;18.73;9.05;;;16.40;99.90;;;;;;5010204;28;20515;-60
2021/05/17 12:09:51;;;;;;;18.80;9.52;;;16.30;99.90;;;;;;5009625;28;20033;-60
2021/05/17 12:12:18;;;;;;;22.45;10.20;;;16.60;99.90;;;;;;4996621;28;20041;-59
2021/05/17 12:14:51;;;;;;;18.67;9.23;;;16.60;99.90;;;;;;5008633;28;20095;-60
2021/05/17 12:17:25;;;;;;;18.48;9.52;;;16.60;99.90;;;;;;5007659;28;20030;-58
2021/05/17 12:19:53;;;;;;;14.47;9.70;;;16.60;99.90;;;;;;5009467;28;20078;-59
2021/05/17 12:22:23;;;;;;;19.88;9.98;;;16.40;99.90;;;;;;5010487;28;20340;-60
2021/05/17 12:24:50;;;;;;;23.02;10.68;;;16.40;99.90;;;;;;5006849;28;22295;-58
2021/05/17 12:27:18;;;;;;;15.70;9.82;;;16.30;99.90;;;;;;5006990;28;20046;-58
2021/05/17 12:29:52;;;;;;;25.88;10.85;;;16.20;99.90;;;;;;5021685;28;20038;-56
2021/05/17 12:32:20;;;;;;;17.08;9.93;;;16.20;99.90;;;;;;5008212;28;20092;-56
2021/05/17 12:34:53;;;;;;;19.30;9.57;;;16.20;99.90;;;;;;5009921;28;20038;-59
2021/05/17 12:37:20;;;;;;;26.90;10.90;;;16.20;99.90;;;;;;5009228;28;20049;-60
2021/05/17 12:39:45;;;;;;;18.50;9.57;;;16.20;99.90;;;;;;5007780;28;20129;-58
2021/05/17 12:42:15;;;;;;;38.75;12.23;;;16.10;99.90;;;;;;5008931;28;20121;-58
2021/05/17 12:44:41;;;;;;;24.98;10.57;;;16.00;99.90;;;;;;4986943;28;20388;-59
2021/05/17 12:47:13;;;;;;;35.00;11.68;;;16.00;99.90;;;;;;5009107;28;20038;-60
2021/05/17 12:49:42;;;;;;;41.53;12.50;;;16.00;99.90;;;;;;5009560;28;20046;-59
2021/05/17 12:52:08;;;;;;;20.08;10.85;;;16.10;99.90;;;;;;5010052;28;20044;-59
2021/05/17 12:54:34;;;;;;;22.50;12.57;;;16.00;99.90;;;;;;5008407;28;20046;-59
2021/05/17 12:57:10;;;;;;;25.75;13.02;;;15.90;99.90;;;;;;5010056;28;20047;-61
2021/05/17 12:59:46;;;;;;;22.92;13.30;;;15.70;99.90;;;;;;5008941;28;20100;-61
2021/05/17 13:02:12;;;;;;;24.70;12.95;;;15.50;99.90;;;;;;5005886;28;20547;-59
2021/05/17 13:04:39;;;;;;;14.90;8.63;;;14.90;99.90;;;;;;5005149;28;20496;-59
2021/05/17 13:07:06;;;;;;;11.95;6.65;;;14.60;99.90;;;;;;5011317;28;20038;-57
2021/05/17 13:09:33;;;;;;;16.23;7.78;;;14.30;99.90;;;;;;5013343;28;20056;-57
2021/05/17 13:12:01;;;;;;;17.00;8.07;;;14.00;99.90;;;;;;5010555;28;20038;-60